Weather observations for the past three days for
York, York Municipal Airport
Metric (Imperial)
Date Time (cdt) Wind (kph) Vis. (km) Weather Sky Cond. Temperature (ºC) Relative Humidity Wind Chill (°C) Heat Index (°C) Pressure Precipitation (cm)
Air Dwpt 6 hour altimeter (cm) sea level (mb) 1 hr 3 hr 6 hr
Max. Min.
07 13:55 NW 17 16.09 Fair CLR 21 -2 21% 75.74 0.0
07 13:35 NW 17 16.09 Fair CLR 20 -1 24% 75.77 0.0
07 13:15 NW 13 16.09 Fair CLR 20 0 26% 75.77 0.0
07 12:55 NW 17 G 39 16.09 Fair CLR 20 1 28% 75.79 0.0
07 12:15 W 15 G 28 16.09 Fair CLR 19 2 32% 75.82 0.0
07 11:55 W 17 G 26 16.09 Fair CLR 18 3 37% 75.82 0.0
07 11:35 NW 17 G 28 16.09 Fair CLR 17 3 39% 75.82 0.0
07 10:55 W 24 G 35 16.09 Fair CLR 16 3 42% 75.82 0.0
07 10:35 W 26 16.09 Fair CLR 15 3 45% 75.84 0.0
07 10:15 W 30 16.09 Fair CLR 15 3 45% 75.84 0.0
07 09:55 SW 24 G 35 16.09 Fair CLR 15 3 45% 75.84 0.0
07 09:35 SW 28 G 37 16.09 Fair CLR 14 3 48% 75.84 0.0
07 09:15 SW 30 16.09 Fair CLR 13 4 55% 75.84 0.0
07 08:55 SW 26 16.09 Fair CLR 11 4 62% 75.87 0.0
07 08:35 SW 22 16.09 Fair CLR 10 5 71% 7 75.9 0.0
07 08:15 SW 26 16.09 Fair CLR 9 5 76% 6 75.92 0.0
07 07:55 SW 24 16.09 Fair CLR 8 5 82% 5 75.92 0.0
07 07:35 SW 19 16.09 Fair CLR 7 5 87% 4 75.92 0.0
07 07:15 SW 19 16.09 Fair CLR 6 5 93% 3 75.95 0.0
07 06:55 SW 20 16.09 Fair CLR 6 5 93% 3 75.92 0.0
07 06:35 SW 17 16.09 Fair CLR 5 4 93% 2 75.95 0.0
07 05:55 SW 20 16.09 Fair CLR 5 5 100% 1 75.97 0.0
07 05:35 SW 22 16.09 Fair CLR 6 5 93% 2 75.97 0.0
07 05:15 SW 22 16.09 Fair CLR 6 5 93% 2 75.97 0.0
07 04:55 SW 19 16.09 Fair CLR 6 5 93% 3 76 0.0
07 04:35 SW 20 16.09 Fair CLR 6 5 93% 3 76 0.0
07 04:15 SW 17 16.09 Fair CLR 6 4 87% 3 76 0.0
07 03:55 SW 17 16.09 Fair CLR 6 4 87% 3 76.02 0.0
07 03:35 SW 19 16.09 Fair CLR 6 4 87% 3 76.02 0.0
07 03:15 SW 19 16.09 Fair CLR 6 4 87% 3 76.05 0.0
07 02:55 SW 17 16.09 Fair CLR 6 4 87% 3 76.07 0.0
07 02:35 SW 19 16.09 Fair CLR 7 4 81% 4 76.1 0.0
07 02:15 SW 20 16.09 Fair CLR 7 4 81% 4 76.12 0.0
07 01:55 SW 20 16.09 Fair CLR 7 4 81% 4 76.12 0.0
07 01:35 SW 20 16.09 Fair CLR 8 4 76% 5 76.15 0.0
07 01:15 SW 26 16.09 Fair CLR 8 4 76% 5 76.15 0.0
07 00:55 SW 22 16.09 Fair CLR 8 4 76% 5 76.17 0.0
07 00:35 SW 22 16.09 Fair CLR 8 3 71% 5 76.17 0.0
07 00:15 SW 19 16.09 Fair CLR 8 2 66% 5 76.17 0.0
06 23:55 SW 17 16.09 Fair CLR 9 2 62% 7 76.17 0.0
06 23:35 SW 20 16.09 Fair CLR 9 2 62% 6 76.2 0.0
06 23:15 SW 20 16.09 Fair CLR 9 2 62% 6 76.2 0.0
06 22:55 SW 20 16.09 Fair CLR 10 2 58% 8 76.23 0.0
06 22:35 SW 17 16.09 Partly Cloudy SCT085 9 1 58% 7 76.23 0.0
06 22:15 SW 19 16.09 Mostly Cloudy BKN085 10 0 50% 8 76.23 0.0
06 21:55 SW 15 16.09 Fair CLR 10 -1 47% 8 76.23 0.0
06 21:35 SW 15 16.09 A Few Clouds FEW065 FEW075 FEW095 10 -2 43% 8 76.23 0.0
06 21:15 SW 17 16.09 Overcast FEW065 BKN080 OVC090 11 -2 41% 76.2 0.0
06 20:55 SW 15 16.09 Overcast OVC090 11 -2 41% 76.2 0.0
06 20:35 SW 13 16.09 Mostly Cloudy BKN090 12 -3 35% 76.17 0.0
06 20:15 SW 11 16.09 Overcast OVC090 13 -3 33% 76.2 0.0
06 19:55 SW 15 16.09 Mostly Cloudy BKN090 13 -3 33% 76.17 0.0
06 19:35 W 19 16.09 Overcast OVC090 14 -4 29% 76.2 0.0
06 19:15 W 15 16.09 Mostly Cloudy BKN095 15 -4 27% 76.2 0.0
06 18:35 W 17 16.09 Mostly Cloudy BKN090 15 -5 25% 76.23 0.0
06 18:15 W 24 16.09 Partly Cloudy SCT090 15 -5 25% 76.23 0.0
06 17:55 W 19 16.09 Mostly Cloudy BKN085 16 -5 23% 76.23 0.0
06 17:35 W 22 16.09 Partly Cloudy SCT085 15 -5 25% 76.25 0.0
06 17:15 W 22 16.09 Mostly Cloudy BKN090 15 -5 25% 76.25 0.0
06 16:55 W 26 G 37 16.09 Mostly Cloudy BKN090 16 -5 23% 76.28 0.0
06 16:35 W 19 G 31 16.09 Overcast OVC085 15 -5 25% 76.28 0.0
06 16:15 NW 11 G 24 16.09 Overcast OVC085 14 -4 29% 76.3 0.0
06 15:55 NW 19 G 30 16.09 Mostly Cloudy BKN085 14 -5 27% 76.33 0.0
06 15:35 W 26 16.09 Mostly Cloudy BKN085 15 -5 25% 76.35 0.0
06 15:15 NW 17 G 30 16.09 Overcast OVC080 14 -5 27% 76.38 0.0
06 14:55 W 20 16.09 Overcast OVC085 15 -5 25% 76.38 0.0
06 14:35 NW 22 16.09 Overcast OVC080 14 -4 29% 76.4 0.0
06 14:15 NW 15 16.09 Mostly Cloudy BKN080 13 -5 28% 76.4 0.0
06 13:55 W 19 16.09 Mostly Cloudy BKN080 BKN085 14 -5 27% 76.4 0.0
06 13:35 N 17 G 31 16.09 Overcast BKN075 OVC085 13 -5 28% 76.43 0.0
06 13:15 NW 13 G 28 16.09 Mostly Cloudy BKN080 13 -5 28% 76.43 0.0
06 12:55 Vrbl 11 G 31 16.09 Mostly Cloudy BKN080 BKN090 13 -5 28% 76.45 0.0
06 12:35 W 17 G 33 16.09 Mostly Cloudy BKN075 13 -5 28% 76.45 0.0
06 12:15 N 13 G 33 16.09 Partly Cloudy SCT080 SCT090 13 -5 28% 76.48 0.0
06 11:55 W 13 G 31 16.09 Partly Cloudy SCT080 12 -5 30% 76.48 0.0
06 11:35 Vrbl 11 G 26 16.09 Mostly Cloudy BKN080 12 -6 28% 76.48 0.0
06 11:15 Vrbl 11 G 28 16.09 Mostly Cloudy BKN075 12 -6 28% 76.5 0.0
06 10:55 Vrbl 11 16.09 Overcast OVC075 11 -4 35% 76.48 0.0
06 10:35 NW 17 16.09 Partly Cloudy SCT075 SCT095 11 -4 35% 76.48 0.0
06 10:15 NW 15 16.09 Partly Cloudy SCT090 11 -5 32% 76.48 0.0
06 09:55 Vrbl 7 16.09 Fair CLR 10 -5 35% 9 76.48 0.0
06 09:35 Vrbl 7 16.09 Fair CLR 9 -4 40% 8 76.5 0.0
06 09:15 Calm 16.09 Fair CLR 9 -4 40% 76.48 0.0
06 08:55 Calm 16.09 Fair CLR 9 -3 43% 76.48 0.0
06 08:35 Calm 16.09 Fair CLR 8 -4 43% 76.48 0.0
06 08:15 Calm 16.09 Fair CLR 8 -2 50% 76.45 0.0
06 07:55 N 9 16.09 Partly Cloudy SCT090 7 -2 53% 5 76.43 0.0
06 07:35 N 6 16.09 Mostly Cloudy BKN090 6 -1 61% 76.43 0.0
06 07:15 NW 7 16.09 Overcast OVC090 5 0 70% 4 76.4 0.0
06 06:55 NW 9 16.09 Mostly Cloudy FEW070 BKN095 4 -1 70% 2 76.38 0.0
06 06:35 NW 7 16.09 Mostly Cloudy BKN075 BKN095 4 -1 70% 2 76.35 0.0
06 06:15 Calm 16.09 Overcast OVC075 5 -1 66% 76.33 0.0
06 05:55 Calm 16.09 Overcast OVC075 5 -1 66% 76.33 0.0
06 05:35 W 6 16.09 Overcast OVC075 5 -1 66% 76.33 0.0
06 05:15 NW 6 16.09 Overcast OVC075 5 -1 66% 76.33 0.0
06 04:55 NW 6 16.09 Overcast OVC070 5 -1 66% 76.33 0.0
06 04:35 NW 6 16.09 Overcast OVC070 6 -2 57% 76.33 0.0
06 04:15 Calm 16.09 Overcast OVC070 6 -2 57% 76.3 0.0
06 03:55 Calm 16.09 Overcast OVC070 6 -1 61% 76.3 0.0
06 03:35 N 6 16.09 Overcast OVC075 6 -3 53% 76.28 0.0
06 03:15 Calm 16.09 Overcast OVC075 6 -3 53% 76.28 0.0
06 02:55 Calm 16.09 Partly Cloudy SCT075 6 -3 53% 76.28 0.0
06 02:35 N 13 16.09 Fair CLR 6 -3 53% 4 76.25 0.0
06 02:15 N 11 16.09 Fair CLR 6 -3 53% 4 76.25 0.0
06 01:55 N 11 16.09 Fair CLR 7 -3 49% 5 76.23 0.0
06 01:35 N 13 16.09 A Few Clouds FEW110 7 -3 49% 5 76.23 0.0
06 01:15 N 13 16.09 Partly Cloudy SCT110 7 -2 53% 5 76.23 0.0
06 00:55 N 7 16.09 Partly Cloudy SCT100 7 -2 53% 6 76.23 0.0
06 00:35 N 9 16.09 Mostly Cloudy BKN110 7 -2 53% 5 76.2 0.0
06 00:15 N 7 16.09 Overcast OVC100 8 -3 46% 7 76.2 0.0
05 23:55 N 7 16.09 Overcast OVC110 8 -3 46% 7 76.2 0.0
05 23:35 N 9 16.09 Overcast OVC110 8 -3 46% 7 76.2 0.0
05 23:15 N 15 16.09 Overcast OVC110 9 -4 40% 7 76.17 0.0
05 22:55 N 17 16.09 Overcast OVC100 9 -4 40% 7 76.17 0.0
05 22:35 N 11 16.09 Overcast FEW085 OVC110 9 -3 43% 8 76.17 0.0
05 22:15 N 15 16.09 Overcast OVC110 9 -3 43% 7 76.15 0.0
05 21:55 N 13 16.09 Overcast FEW080 OVC110 10 -4 37% 8 76.12 0.0
05 21:35 N 13 16.09 Overcast FEW075 FEW090 OVC110 10 -4 37% 8 76.1 0.0
05 21:15 N 19 16.09 Overcast SCT080 OVC100 10 -4 37% 8 76.07 0.0
05 20:55 N 20 16.09 Overcast FEW070 BKN080 OVC100 11 -4 35% 76.05 0.0
05 20:35 N 22 16.09 Overcast FEW085 OVC100 11 -5 32% 76.02 0.0
05 20:15 N 20 16.09 Partly Cloudy SCT100 11 -4 35% 76.02 0.0
05 19:55 N 28 16.09 Partly Cloudy SCT100 12 -4 33% 76 0.0
05 19:35 N 26 16.09 Fair CLR 12 -4 33% 76 0.0
05 19:15 N 30 16.09 Fair CLR 12 -4 33% 75.97 0.0
05 18:55 N 33 16.09 Fair and Breezy CLR 13 -3 33% 75.97 0.0
05 18:35 N 19 G 39 16.09 A Few Clouds FEW070 13 -3 33% 75.95 0.0
05 18:15 N 17 G 30 16.09 A Few Clouds FEW075 FEW120 13 -2 36% 75.95 0.0
05 17:55 N 20 16.09 Partly Cloudy SCT075 13 -2 36% 75.95 0.0
05 17:35 NW 24 G 41 16.09 Partly Cloudy FEW075 SCT085 14 -3 31% 75.92 0.0
05 17:15 NW 26 16.09 Mostly Cloudy SCT070 BKN085 14 -3 31% 75.95 0.0
05 16:55 NW 19 16.09 Mostly Cloudy BKN070 BKN080 14 -2 33% 75.95 0.0
05 16:35 N 13 16.09 Mostly Cloudy BKN065 BKN080 13 -1 38% 75.97 0.0
05 16:15 N 13 G 22 16.09 Partly Cloudy SCT060 SCT075 13 -1 38% 75.97 0.0
05 15:35 N 15 16.09 A Few Clouds FEW075 14 -1 36% 76.02 0.0
05 15:15 NW 19 16.09 Partly Cloudy FEW060 SCT070 13 -1 38% 76.02 0.0
05 14:55 NW 19 16.09 Mostly Cloudy SCT060 BKN070 13 -1 38% 76.05 0.0
05 14:35 NW 19 16.09 Partly Cloudy SCT060 13 -2 36% 76.05 0.0
05 14:15 NW 19 G 28 16.09 A Few Clouds FEW065 13 -1 38% 76.05 0.0
05 13:55 N 17 16.09 A Few Clouds FEW060 14 -1 36% 76.05 0.0
05 13:35 N 15 16.09 Fair CLR 13 -1 38% 76.07 0.0
05 13:15 NW 15 16.09 Fair CLR 13 -1 38% 76.07 0.0
05 12:55 N 13 G 24 16.09 Mostly Cloudy BKN080 12 0 44% 76.1 0.0
05 12:35 N 24 16.09 Partly Cloudy SCT075 11 1 50% 76.12 0.0
05 12:15 N 17 G 33 16.09 Mostly Cloudy SCT065 BKN080 11 1 50% 76.12 0.0
05 11:55 NW 17 16.09 Partly Cloudy FEW048 SCT060 SCT075 11 1 50% 76.12 0.0
05 11:35 N 17 G 35 16.09 Light Rain SCT048 SCT060 10 0 50% 8 76.12 0.0
05 11:15 N 24 G 35 16.09 Partly Cloudy SCT060 SCT085 11 -1 44% 76.12 0.0
05 10:35 N 17 16.09 Overcast OVC070 10 -1 47% 8 76.07 0.0
05 10:15 N 17 16.09 Mostly Cloudy SCT070 BKN100 11 -1 44% 76.07 0.0
05 09:55 N 17 16.09 Overcast OVC100 10 -1 47% 8 76.07 0.0
05 09:35 N 15 16.09 Overcast OVC100 10 -1 47% 8 76.05 0.0
05 09:15 N 19 16.09 Overcast OVC100 10 -1 47% 8 76.02 0.0
05 08:55 N 13 16.09 Overcast OVC100 10 1 54% 8 76.02 0.0
05 08:35 N 9 16.09 Overcast OVC100 9 2 62% 8 76.02 0.0
05 08:15 NE 9 16.09 Overcast OVC095 9 2 62% 8 76 0.0
05 07:55 N 9 16.09 Overcast OVC095 9 3 66% 8 76 0.0
05 07:35 NE 11 16.09 Overcast OVC100 9 3 66% 8 75.95 0.0
05 07:15 NE 9 16.09 Overcast OVC100 9 4 71% 8 75.95 0.0
05 06:55 NE 11 16.09 Overcast OVC100 9 5 76% 8 75.9 0.0
05 06:35 NE 13 16.09 Overcast OVC100 9 6 82% 7 75.87 0.0
05 06:15 NE 15 16.09 Overcast FEW070 FEW085 OVC100 9 6 82% 7 75.84 0.0
05 05:55 NE 7 16.09 Overcast FEW065 BKN075 OVC110 8 7 93% 7 75.79 0.0
05 05:35 N 7 16.09 Overcast BKN065 OVC075 8 7 93% 7 75.79 0.0
05 05:15 NE 6 16.09 Overcast BKN075 OVC095 8 7 93% 75.79 0.0
05 04:55 NE 9 16.09 Overcast BKN080 OVC090 8 7 93% 7 75.79 0.0
05 04:35 Calm 16.09 Overcast SCT080 BKN095 OVC120 8 5 82% 75.79 0.0
05 04:15 NE 6 16.09 Overcast SCT075 BKN090 OVC120 9 5 76% 75.79 0.0
05 03:55 Calm 16.09 Overcast BKN075 OVC090 10 5 71% 75.82 0.0
05 03:35 Calm 16.09 Overcast FEW080 OVC095 10 4 67% 75.79 0.0
05 03:15 Calm 16.09 Overcast FEW080 OVC100 10 5 71% 75.79 0.0
05 02:55 Calm 16.09 Overcast FEW065 BKN080 OVC095 10 5 71% 75.77 0.0
05 02:35 Calm 16.09 Overcast OVC075 10 5 71% 75.79 0.0
05 02:15 Calm 16.09 Overcast BKN065 OVC075 10 5 71% 75.79 0.0
05 01:55 NE 7 16.09 Overcast FEW048 SCT060 OVC070 10 5 71% 9 75.77 0.0
05 01:35 Calm 16.09 Light Rain FEW036 SCT047 BKN070 10 5 71% 75.77 0.0
05 01:15 E 9 16.09 Overcast FEW050 SCT075 OVC090 10 5 71% 9 75.77 0.0
05 00:55 E 9 16.09 Overcast OVC090 10 5 71% 9 75.77 0.0
05 00:35 NE 15 16.09 Overcast OVC090 10 5 71% 8 75.74 0.0
05 00:15 NE 19 16.09 Light Rain FEW042 SCT075 OVC095 10 5 71% 8 75.72 0.0
04 23:55 NE 19 16.09 Overcast FEW043 SCT075 OVC095 11 3 58% 75.74 0.0
04 23:35 NE 20 16.09 Overcast SCT080 OVC095 11 3 58% 75.74 0.0
04 23:15 N 30 G 41 16.09 Overcast FEW049 SCT075 OVC095 12 2 51% 75.79 0.0
04 22:55 N 35 G 46 16.09 Overcast and Breezy FEW045 SCT070 OVC095 12 1 47% 75.74 0.0
04 22:35 N 33 16.09 Mostly Cloudy and Breezy FEW039 SCT070 BKN100 13 1 44% 75.74 0.0
04 22:15 NE 28 G 39 16.09 Overcast FEW070 OVC110 13 0 41% 75.69 0.0
04 21:55 N 30 G 41 16.09 Overcast OVC110 13 0 41% 75.69 0.0
04 21:35 N 31 G 43 16.09 Mostly Cloudy BKN110 14 1 41% 75.67 0.0
04 21:15 N 35 16.09 Mostly Cloudy and Breezy BKN110 14 2 44% 75.59 0.0
04 20:55 N 31 G 50 16.09 Fair CLR 14 2 44% 75.59 0.0
04 20:35 N 52 G 63 16.09 Fair and Windy CLR 15 2 42% 75.54 0.0
04 20:15 N 35 G 50 16.09 Fair and Breezy CLR 16 1 36% 75.46 0.0
04 19:55 N 48 G 57 16.09 Fair and Windy CLR 17 1 34% 75.46 0.0
04 19:35 N 39 G 52 16.09 Fair and Breezy CLR 19 1 30% 75.41 0.0
04 19:15 N 43 G 54 16.09 Fair and Windy CLR 20 1 28% 75.39 0.0
04 18:55 N 35 G 44 16.09 Fair and Breezy CLR 20 1 28% 75.44 0.0
04 18:35 N 39 16.09 Fair and Breezy CLR 21 2 29% 75.41 0.0
04 18:15 N 37 16.09 Fair and Breezy CLR 21 2 29% 75.41 0.0
04 17:55 N 35 G 48 16.09 Fair and Breezy CLR 22 3 29% 75.39 0.0
04 17:35 N 30 G 46 16.09 Fair CLR 22 3 29% 75.39 0.0
04 17:15 N 35 G 46 16.09 Fair and Breezy CLR 22 2 27% 75.36 0.0
04 16:55 N 41 16.09 Fair and Breezy CLR 23 2 25% 75.34 0.0
04 16:35 N 30 G 52 16.09 Fair CLR 23 2 25% 75.34 0.0
04 16:15 N 41 G 52 16.09 Fair and Breezy CLR 24 3 25% 25 75.29 0.0
04 15:55 N 35 G 52 16.09 Fair and Breezy CLR 23 3 27% 75.26 0.0
04 15:35 N 33 G 50 16.09 Fair and Breezy CLR 24 4 27% 25 75.29 0.0
04 15:15 N 30 G 43 16.09 Fair CLR 24 5 29% 25 75.29 0.0
04 14:55 N 28 G 48 16.09 Fair CLR 25 6 30% 25 75.29 0.0
04 14:35 N 35 G 52 16.09 Fair and Breezy CLR 25 6 30% 25 75.26 0.0
04 14:15 N 26 G 46 16.09 Fair CLR 26 7 30% 26 75.26 0.0
Date Time (cdt) Wind (kph) Vis. (km) Weather Sky Cond. Air Dwpt Max. Min. Relative Humidity Wind Chill (°C) Heat Index (°C) altimeter (cm) sea level (mb) 1 hr 3 hr 6 hr
6 hour
Temperature (ºC) Pressure Precipitation (cm)